createdAt,value
2018-01-10T00:01:17.418Z,73.13
2018-01-10T00:03:44.312Z,70.43
2018-01-10T00:06:11.034Z,66.93
2018-01-10T00:08:50.171Z,79.70
2018-01-10T00:11:16.990Z,72.63
2018-01-10T00:14:02.536Z,70.50
2018-01-10T00:19:14.606Z,69.07
2018-01-10T00:21:43.327Z,69.67
2018-01-10T00:24:14.526Z,71.57
2018-01-10T00:26:54.454Z,68.07
2018-01-10T00:29:32.121Z,71.67
2018-01-10T00:32:03.602Z,69.63
2018-01-10T00:34:44.908Z,73.40
2018-01-10T00:37:13.401Z,69.80
2018-01-10T00:39:41.113Z,71.53
2018-01-10T00:44:53.354Z,67.90
2018-01-10T00:47:31.979Z,69.70
2018-01-10T00:50:13.278Z,71.13
2018-01-10T00:52:49.006Z,70.83
2018-01-10T00:55:20.561Z,69.83
2018-01-10T00:57:48.910Z,68.90
2018-01-10T01:03:02.318Z,69.90
2018-01-10T01:05:31.016Z,66.13
2018-01-10T01:07:59.714Z,61.63
2018-01-10T01:10:28.459Z,66.90
2018-01-10T01:12:55.202Z,66.00
2018-01-10T01:15:21.937Z,62.67
2018-01-10T01:17:53.818Z,62.63
2018-01-10T01:20:21.512Z,61.23
2018-01-10T01:22:53.043Z,60.70
2018-01-10T01:25:23.497Z,63.13
2018-01-10T01:27:50.198Z,70.40
2018-01-10T01:30:18.500Z,63.90
2018-01-10T01:32:45.288Z,65.37
2018-01-10T01:35:14.023Z,64.67
2018-01-10T01:37:50.422Z,66.10
2018-01-10T01:40:18.869Z,60.03
2018-01-10T01:42:47.611Z,60.93
2018-01-10T01:45:15.360Z,65.43
2018-01-10T01:47:44.019Z,68.23
2018-01-10T01:50:23.262Z,64.73
2018-01-10T01:52:50.940Z,63.30
2018-01-10T01:55:18.594Z,58.90
2018-01-10T01:57:47.327Z,57.43
2018-01-10T02:00:15.082Z,51.70
2018-01-10T02:02:42.849Z,52.60
2018-01-10T02:05:09.607Z,63.37
2018-01-10T02:07:51.131Z,66.77
2018-01-10T02:10:19.895Z,65.33
2018-01-10T02:12:51.974Z,64.47
2018-01-10T02:15:23.182Z,61.83
2018-01-10T02:17:49.949Z,51.67
2018-01-10T02:20:16.641Z,56.30
2018-01-10T02:22:47.734Z,51.27
2018-01-10T02:25:17.416Z,58.00
2018-01-10T02:27:44.139Z,55.27
2018-01-10T02:30:11.879Z,51.00
2018-01-10T02:35:32.254Z,51.97
2018-01-10T02:38:02.463Z,51.73
2018-01-10T02:40:30.141Z,54.10
2018-01-10T02:42:58.911Z,56.87
2018-01-10T02:45:30.894Z,52.73
2018-01-10T02:47:57.635Z,53.47
2018-01-10T02:50:28.877Z,48.07
2018-01-10T02:52:57.603Z,43.80
2018-01-10T02:55:35.317Z,45.43
2018-01-10T02:58:12.963Z,51.07
2018-01-10T03:00:57.795Z,40.60
2018-01-10T03:03:37.607Z,48.50
2018-01-10T03:06:04.430Z,51.23
2018-01-10T03:08:31.127Z,52.50
2018-01-10T03:11:06.358Z,47.00
2018-01-10T03:13:35.029Z,50.53
2018-01-10T03:16:01.760Z,50.93
2018-01-10T03:18:34.267Z,52.33
2018-01-10T03:21:00.998Z,51.00
2018-01-10T03:23:30.095Z,51.63
2018-01-10T03:26:01.582Z,50.80
2018-01-10T03:28:34.241Z,54.27
2018-01-10T03:31:02.018Z,52.83
2018-01-10T03:33:29.287Z,51.83
2018-01-10T03:35:57.945Z,51.87
2018-01-10T03:38:24.665Z,48.73
2018-01-10T03:40:52.992Z,47.57
2018-01-10T03:43:20.653Z,51.90
2018-01-10T03:45:48.347Z,53.27
2018-01-10T03:48:19.677Z,53.93
2018-01-10T03:50:47.321Z,49.90
2018-01-10T03:53:14.079Z,56.03
2018-01-10T03:55:41.833Z,50.47
2018-01-10T03:58:08.519Z,49.23
2018-01-10T04:00:37.233Z,50.30
2018-01-10T04:03:14.635Z,55.63
2018-01-10T04:05:42.337Z,51.70
2018-01-10T04:08:12.959Z,52.70
2018-01-10T04:10:43.613Z,54.00
2018-01-10T04:13:10.337Z,56.13
2018-01-10T04:15:43.033Z,57.77
2018-01-10T04:18:09.761Z,63.37
2018-01-10T04:20:37.450Z,66.07
2018-01-10T04:23:17.660Z,63.63
2018-01-10T04:25:55.076Z,64.57
2018-01-10T04:28:21.799Z,67.23
2018-01-10T04:30:50.520Z,69.67
2018-01-10T04:33:19.107Z,61.30
2018-01-10T04:35:50.474Z,60.37
2018-01-10T04:38:18.128Z,60.60
2018-01-10T04:40:45.799Z,68.13
2018-01-10T04:43:12.525Z,79.03
2018-01-10T04:45:40.207Z,62.47
2018-01-10T04:48:08.890Z,71.37
2018-01-10T04:50:36.593Z,71.83
2018-01-10T04:53:04.233Z,81.90
2018-01-10T04:55:30.971Z,67.70
2018-01-10T04:58:02.071Z,77.77
2018-01-10T05:00:30.821Z,82.17
2018-01-10T05:02:58.487Z,95.80
2018-01-10T05:05:43.677Z,87.67
2018-01-10T05:08:10.415Z,107.23
2018-01-10T05:10:43.184Z,106.03
2018-01-10T05:13:09.904Z,102.63
2018-01-10T05:15:39.661Z,83.53
2018-01-10T05:18:08.201Z,75.90
2018-01-10T05:20:36.947Z,65.87
2018-01-10T05:23:03.689Z,72.50
2018-01-10T05:25:31.370Z,68.87
2018-01-10T05:28:01.455Z,60.13
2018-01-10T05:30:28.149Z,64.40
2018-01-10T05:32:54.863Z,64.50
2018-01-10T05:35:23.654Z,69.40
2018-01-10T05:37:50.394Z,61.80
2018-01-10T05:40:21.796Z,67.40
2018-01-10T05:42:52.176Z,72.30
2018-01-10T05:48:06.068Z,80.70
2018-01-10T05:50:33.887Z,81.83
2018-01-10T05:55:47.209Z,79.30
2018-01-10T05:58:21.031Z,93.37
2018-01-10T06:00:48.767Z,106.87
2018-01-10T06:03:16.499Z,115.67
2018-01-10T06:05:44.182Z,111.17
2018-01-10T06:08:14.667Z,105.13
2018-01-10T06:10:41.383Z,111.93
2018-01-10T06:13:08.174Z,98.73
2018-01-10T06:15:35.891Z,113.50
2018-01-10T06:18:04.571Z,119.53
2018-01-10T06:20:33.227Z,121.73
2018-01-10T06:23:00.929Z,128.00
2018-01-10T06:25:32.568Z,127.57
2018-01-10T06:28:01.323Z,127.47
2018-01-10T06:30:28.067Z,121.27
2018-01-10T06:32:54.772Z,135.30
2018-01-10T06:35:22.547Z,138.53
2018-01-10T06:37:50.270Z,132.53
2018-01-10T06:40:24.385Z,139.80
2018-01-10T06:42:56.225Z,122.20
2018-01-10T06:48:09.524Z,126.77
2018-01-10T06:50:36.287Z,127.87
2018-01-10T06:53:08.926Z,119.40
2018-01-10T06:55:37.793Z,119.67
2018-01-10T06:58:04.577Z,113.17
2018-01-10T07:00:31.366Z,131.67
2018-01-10T07:03:03.743Z,141.07
2018-01-10T07:05:34.459Z,137.57
2018-01-10T07:08:06.749Z,136.93
2018-01-10T07:10:38.365Z,136.83
2018-01-10T07:13:05.080Z,131.40
2018-01-10T07:15:40.206Z,131.57
2018-01-10T07:18:09.443Z,117.43
2018-01-10T07:20:40.215Z,131.07
2018-01-10T07:23:07.853Z,102.77
2018-01-10T07:25:38.743Z,100.30
2018-01-10T07:28:05.462Z,99.73
2018-01-10T07:30:33.107Z,96.97
2018-01-10T07:33:00.783Z,98.50
2018-01-10T07:35:30.010Z,96.50
2018-01-10T07:37:56.742Z,96.53
2018-01-10T07:40:29.107Z,102.53
2018-01-10T07:48:29.367Z,90.40
2018-01-10T07:50:56.107Z,94.67
2018-01-10T07:53:22.787Z,79.50
2018-01-10T07:55:54.411Z,83.60
2018-01-10T07:58:23.104Z,87.07
2018-01-10T08:00:49.803Z,93.30
2018-01-10T08:03:16.513Z,93.20
2018-01-10T08:05:46.305Z,81.63
2018-01-10T08:08:12.989Z,97.70
2018-01-10T08:10:39.707Z,104.80
2018-01-10T08:13:07.362Z,120.50
2018-01-10T08:15:34.067Z,123.47
2018-01-10T08:18:05.054Z,137.87
2018-01-10T08:20:31.743Z,154.97
2018-01-10T08:23:00.432Z,164.90
2018-01-10T08:25:28.163Z,152.57
2018-01-10T08:27:55.831Z,146.40
2018-01-10T08:30:22.748Z,152.47
2018-01-10T08:32:50.451Z,150.27
2018-01-10T08:35:19.117Z,154.73
2018-01-10T08:37:46.785Z,139.10
2018-01-10T08:40:14.371Z,124.47
2018-01-10T08:42:41.107Z,120.07
2018-01-10T08:45:07.817Z,104.13
2018-01-10T08:47:35.595Z,99.07
2018-01-10T08:50:02.292Z,97.10
2018-01-10T08:52:30.950Z,96.10
2018-01-10T08:54:57.717Z,92.80
2018-01-10T08:57:26.190Z,105.43
2018-01-10T08:59:54.632Z,95.27
2018-01-10T09:02:22.315Z,98.00
2018-01-10T09:04:49.068Z,89.10
2018-01-10T09:07:15.816Z,92.73
2018-01-10T09:09:42.524Z,97.07
2018-01-10T09:12:10.152Z,89.53
2018-01-10T09:14:36.830Z,94.00
2018-01-10T09:17:07.093Z,93.90
2018-01-10T09:19:33.778Z,90.03
2018-01-10T09:22:00.480Z,101.70
2018-01-10T09:24:27.240Z,94.40
2018-01-10T09:26:53.943Z,97.83
2018-01-10T09:29:22.648Z,104.27
2018-01-10T09:31:50.051Z,101.80
2018-01-10T09:34:20.895Z,106.13
2018-01-10T09:36:47.590Z,110.37
2018-01-10T09:39:15.262Z,107.43
2018-01-10T09:41:42.011Z,108.87
2018-01-10T09:44:08.721Z,100.93
2018-01-10T09:46:35.452Z,111.30
2018-01-10T09:49:02.137Z,103.13
2018-01-10T09:51:28.843Z,105.90
2018-01-10T09:53:55.548Z,124.97
2018-01-10T09:56:23.136Z,134.93
2018-01-10T09:58:49.866Z,131.80
2018-01-10T10:01:16.612Z,118.97
2018-01-10T10:03:44.638Z,109.43
2018-01-10T10:06:11.344Z,113.47
2018-01-10T10:08:39.156Z,117.33
2018-01-10T10:13:53.785Z,101.43
2018-01-10T10:16:20.491Z,105.20
2018-01-10T10:18:49.170Z,96.10
2018-01-10T10:21:15.910Z,96.27
2018-01-10T10:23:43.632Z,86.70
2018-01-10T10:26:12.126Z,86.53
2018-01-10T10:28:40.769Z,98.37
2018-01-10T10:31:23.044Z,99.77
2018-01-10T10:33:51.948Z,102.50
2018-01-10T10:36:28.387Z,108.50
2018-01-10T10:38:59.411Z,117.60
2018-01-10T10:41:29.290Z,111.23
2018-01-10T10:43:56.020Z,141.93
2018-01-10T10:46:22.787Z,133.53
2018-01-10T10:48:49.498Z,159.37
2018-01-10T10:51:17.219Z,146.10
2018-01-10T10:53:43.934Z,151.27
2018-01-10T10:56:10.629Z,129.70
2018-01-10T10:58:37.330Z,132.80
2018-01-10T11:01:04.046Z,121.73
2018-01-10T11:03:31.758Z,126.73
2018-01-10T11:05:58.474Z,118.27
2018-01-10T11:08:27.223Z,106.27
2018-01-10T11:13:41.123Z,113.07
2018-01-10T11:16:08.872Z,106.20
2018-01-10T11:18:36.585Z,126.80
2018-01-10T11:21:03.294Z,134.23
2018-01-10T11:23:32.038Z,120.30
2018-01-10T11:26:00.732Z,116.53
2018-01-10T11:28:27.503Z,122.30
2018-01-10T11:30:55.272Z,129.40
2018-01-10T11:33:23.015Z,122.33
2018-01-10T11:35:49.845Z,140.77
2018-01-10T11:38:18.556Z,135.40
2018-01-10T11:40:53.664Z,140.00
2018-01-10T11:43:22.973Z,129.77
2018-01-10T11:45:49.814Z,132.30
2018-01-10T11:48:18.008Z,131.43
2018-01-10T11:50:46.942Z,133.20
2018-01-10T11:53:13.647Z,139.87
2018-01-10T11:55:42.353Z,124.97
2018-01-10T11:58:09.048Z,138.60
2018-01-10T12:00:35.738Z,146.13
2018-01-10T12:03:02.461Z,139.57
2018-01-10T12:05:30.157Z,133.53
2018-01-10T12:08:06.526Z,137.27
2018-01-10T12:10:38.564Z,150.47
2018-01-10T12:13:05.249Z,158.20
2018-01-10T12:15:32.015Z,174.40
2018-01-10T12:17:58.713Z,182.77
2018-01-10T12:20:25.474Z,143.43
2018-01-10T12:22:52.253Z,160.50
2018-01-10T12:25:19.846Z,154.60
2018-01-10T12:27:46.854Z,138.97
2018-01-10T12:30:13.562Z,294.50
2018-01-10T12:32:40.282Z,235.33
2018-01-10T12:35:06.974Z,157.87
2018-01-10T12:37:34.689Z,131.07
2018-01-10T12:40:01.403Z,137.93
2018-01-10T12:42:28.128Z,136.83
2018-01-10T12:44:54.835Z,127.20
2018-01-10T12:47:21.518Z,125.83
2018-01-10T12:49:50.163Z,121.87
2018-01-10T12:52:16.891Z,124.80
2018-01-10T12:54:43.585Z,118.53
2018-01-10T12:57:11.318Z,107.40
2018-01-10T12:59:38.006Z,112.90
2018-01-10T13:02:04.694Z,114.93
2018-01-10T13:04:31.437Z,118.70
2018-01-10T13:06:58.137Z,120.27
2018-01-10T13:09:25.448Z,146.00
2018-01-10T13:11:52.166Z,154.47
2018-01-10T13:14:18.890Z,171.33
2018-01-10T13:16:45.612Z,235.90
2018-01-10T13:19:13.089Z,252.97
2018-01-10T13:21:40.184Z,220.43
2018-01-10T13:24:07.065Z,236.97
2018-01-10T13:26:33.796Z,212.23
2018-01-10T13:29:00.704Z,207.00
2018-01-10T13:31:27.422Z,247.23
2018-01-10T13:33:54.118Z,218.70
2018-01-10T13:36:20.897Z,202.70
2018-01-10T13:38:49.558Z,187.03
2018-01-10T13:41:16.266Z,196.23
2018-01-10T13:43:42.996Z,195.63
2018-01-10T13:46:09.688Z,179.87
2018-01-10T13:48:36.428Z,176.30
2018-01-10T13:51:03.178Z,173.37
2018-01-10T13:53:30.860Z,207.47
2018-01-10T13:55:58.097Z,229.20
2018-01-10T13:58:24.872Z,219.40
2018-01-10T14:00:52.206Z,224.13
2018-01-10T14:03:22.652Z,218.77
2018-01-10T14:05:49.372Z,230.00
2018-01-10T14:08:16.191Z,230.30
2018-01-10T14:10:42.974Z,229.23
2018-01-10T14:13:09.724Z,264.40
2018-01-10T14:15:40.226Z,263.67
2018-01-10T14:18:23.283Z,266.27
2018-01-10T14:20:49.982Z,316.83
2018-01-10T14:23:17.628Z,269.10
2018-01-10T14:25:46.282Z,266.17
2018-01-10T14:28:12.990Z,256.83
2018-01-10T14:30:40.031Z,301.63
2018-01-10T14:33:11.346Z,290.20
2018-01-10T14:35:38.045Z,281.60
2018-01-10T14:38:04.760Z,316.77
2018-01-10T14:40:32.517Z,317.40
2018-01-10T14:42:59.272Z,355.27
2018-01-10T14:45:25.986Z,427.33
2018-01-10T14:47:52.720Z,366.57
2018-01-10T14:50:19.437Z,349.27
2018-01-10T14:52:48.261Z,329.87
2018-01-10T14:55:19.654Z,395.83
2018-01-10T15:00:32.868Z,439.40
2018-01-10T15:03:04.874Z,444.77
2018-01-10T15:05:32.617Z,495.50
2018-01-10T15:08:04.484Z,482.03
2018-01-10T15:10:31.824Z,367.27
2018-01-10T15:12:58.534Z,357.43
2018-01-10T15:15:25.274Z,391.33
2018-01-10T15:17:51.968Z,384.87
2018-01-10T15:20:18.660Z,387.43
2018-01-10T15:22:46.357Z,342.50
2018-01-10T15:25:13.078Z,363.23
2018-01-10T15:27:39.772Z,426.93
2018-01-10T15:30:07.311Z,854.60
2018-01-10T15:32:34.004Z,657.00
2018-01-10T15:35:00.715Z,515.07
2018-01-10T15:37:28.077Z,463.53
2018-01-10T15:39:54.993Z,483.83
2018-01-10T15:42:21.710Z,509.53
2018-01-10T15:44:48.791Z,494.30
2018-01-10T15:47:15.500Z,473.07
2018-01-10T15:49:44.260Z,475.80
2018-01-10T15:52:11.008Z,467.47
2018-01-10T15:54:37.903Z,437.47
2018-01-10T15:57:04.614Z,466.97
2018-01-10T15:59:31.327Z,492.60
2018-01-10T16:01:58.044Z,400.33
2018-01-10T16:04:24.831Z,384.60
2018-01-10T16:06:51.570Z,394.20
2018-01-10T16:09:18.268Z,359.60
2018-01-10T16:11:44.978Z,336.73
2018-01-10T16:14:11.794Z,360.77
2018-01-10T16:16:38.524Z,349.03
2018-01-10T16:19:05.229Z,351.17
2018-01-10T16:21:33.034Z,324.70
2018-01-10T16:23:59.968Z,303.67
2018-01-10T16:26:28.657Z,300.13
2018-01-10T16:28:56.984Z,289.53
2018-01-10T16:31:23.732Z,283.03
2018-01-10T16:33:50.456Z,279.67
2018-01-10T16:36:20.674Z,259.97
2018-01-10T16:38:47.378Z,220.03
2018-01-10T16:41:14.067Z,227.60
2018-01-10T16:43:40.816Z,234.53
2018-01-10T16:46:07.529Z,248.40
2018-01-10T16:48:34.255Z,242.97
2018-01-10T16:51:01.001Z,247.67
2018-01-10T16:53:27.782Z,273.83
2018-01-10T16:55:55.074Z,278.20
2018-01-10T16:58:21.934Z,280.83
2018-01-10T17:00:48.645Z,279.57
2018-01-10T17:03:15.354Z,274.70
2018-01-10T17:05:42.116Z,251.43
2018-01-10T17:08:09.169Z,249.33
2018-01-10T17:10:36.022Z,223.50
2018-01-10T17:13:02.785Z,221.70
2018-01-10T17:15:29.493Z,237.63
2018-01-10T17:17:56.184Z,264.47
2018-01-10T17:20:22.916Z,266.80
2018-01-10T17:22:58.899Z,246.63
2018-01-10T17:25:25.726Z,236.33
2018-01-10T17:27:52.491Z,226.43
2018-01-10T17:30:19.204Z,222.20
2018-01-10T17:32:45.956Z,208.27
2018-01-10T17:35:12.663Z,208.43
2018-01-10T17:37:39.363Z,236.83
2018-01-10T17:40:08.051Z,238.07
2018-01-10T17:42:34.894Z,260.73
2018-01-10T17:45:01.610Z,246.10
2018-01-10T17:47:47.517Z,286.43
2018-01-10T17:53:00.201Z,244.57
2018-01-10T17:55:28.295Z,212.10
2018-01-10T17:57:55.083Z,204.63
2018-01-10T18:00:21.821Z,203.00
2018-01-10T18:02:48.540Z,213.60
2018-01-10T18:05:15.272Z,212.30
2018-01-10T18:07:42.019Z,202.80
2018-01-10T18:10:08.719Z,219.83
2018-01-10T18:12:35.943Z,232.03
2018-01-10T18:15:02.675Z,244.27
2018-01-10T18:17:32.996Z,235.57
2018-01-10T18:20:00.374Z,217.03
2018-01-10T18:22:27.095Z,235.97
2018-01-10T18:24:53.806Z,199.13
2018-01-10T18:27:20.585Z,198.23
2018-01-10T18:29:47.348Z,213.23
2018-01-10T18:32:14.076Z,222.00
2018-01-10T18:34:40.810Z,258.30
2018-01-10T18:37:07.527Z,266.77
2018-01-10T18:39:34.323Z,265.92
2018-01-10T18:42:01.257Z,311.10
2018-01-10T18:44:29.582Z,275.40
2018-01-10T18:46:56.741Z,279.17
2018-01-10T18:49:24.059Z,248.43
2018-01-10T18:51:50.812Z,305.47
2018-01-10T18:54:18.335Z,344.03
2018-01-10T18:56:45.048Z,474.80
2018-01-10T18:59:11.795Z,459.00
2018-01-10T19:01:39.619Z,449.67
2018-01-10T19:04:06.322Z,464.27
2018-01-10T19:06:33.061Z,479.07
2018-01-10T19:09:00.655Z,454.43
2018-01-10T19:11:27.487Z,453.87
2018-01-10T19:13:54.263Z,430.10
2018-01-10T19:16:20.961Z,402.67
2018-01-10T19:18:47.799Z,394.37
2018-01-10T19:21:16.313Z,365.37
2018-01-10T19:23:43.073Z,321.27
2018-01-10T19:26:09.791Z,366.93
2018-01-10T19:28:36.546Z,341.10
2018-01-10T19:31:03.261Z,380.97
2018-01-10T19:33:29.978Z,402.10
2018-01-10T19:35:56.711Z,395.37
2018-01-10T19:38:23.437Z,409.57
2018-01-10T19:40:50.154Z,528.50
2018-01-10T19:43:16.890Z,635.83
2018-01-10T19:45:43.590Z,650.73
2018-01-10T19:48:10.335Z,641.10
2018-01-10T19:50:37.075Z,647.07
2018-01-10T19:53:03.790Z,652.87
2018-01-10T19:55:30.524Z,650.60
2018-01-10T19:57:57.323Z,631.37
2018-01-10T20:00:24.007Z,621.67
2018-01-10T20:02:50.713Z,620.77
2018-01-10T20:05:17.427Z,608.50
2018-01-10T20:07:44.135Z,578.47
2018-01-10T20:10:10.832Z,623.93
2018-01-10T20:12:37.595Z,623.30
2018-01-10T20:15:04.442Z,577.03
2018-01-10T20:17:31.166Z,626.70
2018-01-10T20:19:57.875Z,553.53
2018-01-10T20:22:31.923Z,610.40
2018-01-10T20:24:58.668Z,564.27
2018-01-10T20:27:25.402Z,544.37
2018-01-10T20:29:53.340Z,531.73
2018-01-10T20:32:20.080Z,512.83
2018-01-10T20:34:46.790Z,490.17
2018-01-10T20:37:13.517Z,484.30
2018-01-10T20:39:40.280Z,502.43
2018-01-10T20:42:06.987Z,496.97
2018-01-10T20:44:33.725Z,483.03
2018-01-10T20:47:00.468Z,498.70
2018-01-10T20:49:27.237Z,467.47
2018-01-10T20:51:53.946Z,469.97
2018-01-10T20:54:20.717Z,477.20
2018-01-10T20:56:47.459Z,518.47
2018-01-10T20:59:14.261Z,490.83
2018-01-10T21:01:40.993Z,522.70
2018-01-10T21:04:07.848Z,482.43
2018-01-10T21:06:34.573Z,483.40
2018-01-10T21:09:01.320Z,472.30
2018-01-10T21:11:28.081Z,482.10
2018-01-10T21:13:54.815Z,457.80
2018-01-10T21:16:21.592Z,447.30
2018-01-10T21:18:48.294Z,438.33
2018-01-10T21:21:14.999Z,449.93
2018-01-10T21:23:41.739Z,469.97
2018-01-10T21:26:08.456Z,459.03
2018-01-10T21:28:35.159Z,439.17
2018-01-10T21:31:01.895Z,421.67
2018-01-10T21:33:28.598Z,442.27
2018-01-10T21:35:55.315Z,416.27
2018-01-10T21:38:22.063Z,402.67
2018-01-10T21:40:48.775Z,420.50
2018-01-10T21:43:15.483Z,435.10
2018-01-10T21:45:42.280Z,431.43
2018-01-10T21:48:08.991Z,401.73
2018-01-10T21:50:35.679Z,401.47
2018-01-10T21:53:02.469Z,391.37
2018-01-10T21:55:29.199Z,380.10
2018-01-10T21:57:55.933Z,374.90
2018-01-10T22:00:22.751Z,450.10
2018-01-10T22:02:49.443Z,419.60
2018-01-10T22:05:16.147Z,418.33
2018-01-10T22:07:44.902Z,403.43
2018-01-10T22:10:11.642Z,465.97
2018-01-10T22:12:38.351Z,451.83
2018-01-10T22:15:05.066Z,435.27
2018-01-10T22:17:31.819Z,458.70
2018-01-10T22:19:58.521Z,464.77
2018-01-10T22:22:26.295Z,519.10
2018-01-10T22:24:54.295Z,478.83
2018-01-10T22:27:21.008Z,472.53
2018-01-10T22:29:47.769Z,448.20
2018-01-10T22:32:14.486Z,449.20
2018-01-10T22:34:41.224Z,441.93
2018-01-10T22:37:08.004Z,418.43
2018-01-10T22:39:36.752Z,440.17
2018-01-10T22:42:03.507Z,454.77
2018-01-10T22:44:30.251Z,452.43
2018-01-10T22:46:56.973Z,454.93
2018-01-10T22:49:23.685Z,438.53
2018-01-10T22:51:53.451Z,491.43
2018-01-10T22:54:21.131Z,476.60
2018-01-10T22:56:49.810Z,487.23
2018-01-10T23:02:15.005Z,476.57
2018-01-10T23:04:43.745Z,495.60
2018-01-10T23:09:56.185Z,437.10
2018-01-10T23:12:22.927Z,489.37
2018-01-10T23:14:49.625Z,470.87
2018-01-10T23:17:16.351Z,430.17
2018-01-10T23:19:43.046Z,440.83
2018-01-10T23:22:09.753Z,386.40
2018-01-10T23:24:40.391Z,417.27
2018-01-10T23:27:11.555Z,463.00
2018-01-10T23:29:40.291Z,469.43
2018-01-10T23:32:11.085Z,464.67
2018-01-10T23:34:37.863Z,472.63
2018-01-10T23:37:04.612Z,510.43
2018-01-10T23:39:33.265Z,465.00
2018-01-10T23:41:59.979Z,473.87
2018-01-10T23:44:28.730Z,440.83
2018-01-10T23:46:57.407Z,443.87
2018-01-10T23:49:26.097Z,435.10
2018-01-10T23:51:55.265Z,463.10
2018-01-10T23:54:24.057Z,488.57
2018-01-10T23:56:55.567Z,499.93
2018-01-10T23:59:22.275Z,474.77
